Weather at Defiance Memorial Airport

Public forecast

Using degrees Fahrenheit for public forecast. Weather courtesy of forecast.io.

Current aviation weather report (METAR) for Defiance Memorial Airport

Retrieved 2021/05/16 19:53 UTC (1 hour ago):

KDFI 161953Z AUTO VRB04KT 10SM SCT075 23/07 A3018 RMK AO2 SLP219 T02280067

Closest aviation forecast (TAF) to Defiance Memorial Airport

Closest forecast is Toledo Express Airport, 31.7 nm (58.7 km) ENE. Retrieved 2021/05/16 18:21 UTC (3 hours ago):

TAF KTOL 161720Z 1618/1718 12006KT P6SM FEW060 SCT090 FM170300 VRB03KT P6SM SCT070 BKN100